sensor_id;sensor_type;location;lat;lon;timestamp;P1;durP1;ratioP1;P2;durP2;ratioP2
12908;SDS011;6522;49.622;6.126;2023-04-16T00:00:09;8.85;;;8.20;;
12908;SDS011;6522;49.622;6.126;2023-04-16T00:02:56;9.50;;;7.62;;
12908;SDS011;6522;49.622;6.126;2023-04-16T00:05:43;7.90;;;7.30;;
12908;SDS011;6522;49.622;6.126;2023-04-16T00:08:29;6.62;;;6.12;;
12908;SDS011;6522;49.622;6.126;2023-04-16T00:11:16;8.63;;;7.60;;
12908;SDS011;6522;49.622;6.126;2023-04-16T00:14:03;7.85;;;7.25;;
12908;SDS011;6522;49.622;6.126;2023-04-16T00:16:50;7.65;;;7.05;;
12908;SDS011;6522;49.622;6.126;2023-04-16T00:19:37;7.90;;;7.30;;
12908;SDS011;6522;49.622;6.126;2023-04-16T00:22:24;7.95;;;7.07;;
12908;SDS011;6522;49.622;6.126;2023-04-16T00:25:10;6.70;;;6.30;;
12908;SDS011;6522;49.622;6.126;2023-04-16T00:27:57;7.22;;;6.82;;
12908;SDS011;6522;49.622;6.126;2023-04-16T00:30:43;7.30;;;6.80;;
12908;SDS011;6522;49.622;6.126;2023-04-16T00:33:30;6.65;;;6.05;;
12908;SDS011;6522;49.622;6.126;2023-04-16T00:36:17;6.43;;;6.00;;
12908;SDS011;6522;49.622;6.126;2023-04-16T00:39:04;6.15;;;5.65;;
12908;SDS011;6522;49.622;6.126;2023-04-16T00:41:50;6.35;;;5.85;;
12908;SDS011;6522;49.622;6.126;2023-04-16T00:44:37;7.82;;;6.22;;
12908;SDS011;6522;49.622;6.126;2023-04-16T00:47:24;6.32;;;5.93;;
12908;SDS011;6522;49.622;6.126;2023-04-16T00:50:11;5.90;;;5.60;;
12908;SDS011;6522;49.622;6.126;2023-04-16T00:52:58;5.55;;;5.15;;
12908;SDS011;6522;49.622;6.126;2023-04-16T00:55:45;5.60;;;5.30;;
12908;SDS011;6522;49.622;6.126;2023-04-16T00:58:32;6.07;;;5.68;;
12908;SDS011;6522;49.622;6.126;2023-04-16T01:01:19;4.90;;;4.50;;
12908;SDS011;6522;49.622;6.126;2023-04-16T01:04:05;5.90;;;5.40;;
12908;SDS011;6522;49.622;6.126;2023-04-16T01:06:52;6.05;;;5.65;;
12908;SDS011;6522;49.622;6.126;2023-04-16T01:09:38;5.78;;;5.47;;
12908;SDS011;6522;49.622;6.126;2023-04-16T01:12:25;4.95;;;4.65;;
12908;SDS011;6522;49.622;6.126;2023-04-16T01:15:12;4.37;;;3.97;;
12908;SDS011;6522;49.622;6.126;2023-04-16T01:17:59;6.10;;;5.70;;
12908;SDS011;6522;49.622;6.126;2023-04-16T01:20:46;5.87;;;5.22;;
12908;SDS011;6522;49.622;6.126;2023-04-16T01:23:32;5.90;;;5.50;;
12908;SDS011;6522;49.622;6.126;2023-04-16T01:26:19;6.03;;;5.62;;
12908;SDS011;6522;49.622;6.126;2023-04-16T01:29:06;5.85;;;5.30;;
12908;SDS011;6522;49.622;6.126;2023-04-16T01:31:52;5.43;;;5.03;;
12908;SDS011;6522;49.622;6.126;2023-04-16T01:34:39;5.28;;;4.97;;
12908;SDS011;6522;49.622;6.126;2023-04-16T01:37:25;5.28;;;4.97;;
12908;SDS011;6522;49.622;6.126;2023-04-16T01:40:12;4.70;;;4.30;;
12908;SDS011;6522;49.622;6.126;2023-04-16T01:42:59;5.17;;;4.77;;
12908;SDS011;6522;49.622;6.126;2023-04-16T01:45:46;4.87;;;4.47;;
12908;SDS011;6522;49.622;6.126;2023-04-16T01:48:33;5.10;;;4.70;;
12908;SDS011;6522;49.622;6.126;2023-04-16T01:51:20;6.30;;;5.90;;
12908;SDS011;6522;49.622;6.126;2023-04-16T01:54:08;6.50;;;6.10;;
12908;SDS011;6522;49.622;6.126;2023-04-16T01:56:53;6.20;;;5.80;;
12908;SDS011;6522;49.622;6.126;2023-04-16T01:59:40;5.87;;;5.47;;
12908;SDS011;6522;49.622;6.126;2023-04-16T02:02:27;5.10;;;4.70;;
12908;SDS011;6522;49.622;6.126;2023-04-16T02:05:14;5.40;;;5.00;;
12908;SDS011;6522;49.622;6.126;2023-04-16T02:08:00;4.65;;;4.35;;
12908;SDS011;6522;49.622;6.126;2023-04-16T02:10:51;5.30;;;4.90;;
12908;SDS011;6522;49.622;6.126;2023-04-16T02:13:34;4.62;;;4.22;;
12908;SDS011;6522;49.622;6.126;2023-04-16T02:16:21;5.68;;;5.25;;
12908;SDS011;6522;49.622;6.126;2023-04-16T02:19:07;5.18;;;4.78;;
12908;SDS011;6522;49.622;6.126;2023-04-16T02:21:54;5.93;;;5.43;;
12908;SDS011;6522;49.622;6.126;2023-04-16T02:24:41;5.00;;;4.60;;
12908;SDS011;6522;49.622;6.126;2023-04-16T02:27:28;4.37;;;3.97;;
12908;SDS011;6522;49.622;6.126;2023-04-16T02:30:14;5.50;;;5.00;;
12908;SDS011;6522;49.622;6.126;2023-04-16T02:33:05;5.63;;;4.60;;
12908;SDS011;6522;49.622;6.126;2023-04-16T02:35:48;6.20;;;5.70;;
12908;SDS011;6522;49.622;6.126;2023-04-16T02:38:35;5.00;;;4.60;;
12908;SDS011;6522;49.622;6.126;2023-04-16T02:41:22;6.57;;;5.35;;
12908;SDS011;6522;49.622;6.126;2023-04-16T02:44:08;6.65;;;5.37;;
12908;SDS011;6522;49.622;6.126;2023-04-16T02:46:55;5.55;;;5.00;;
12908;SDS011;6522;49.622;6.126;2023-04-16T02:49:42;5.15;;;4.65;;
12908;SDS011;6522;49.622;6.126;2023-04-16T02:52:28;5.40;;;4.82;;
12908;SDS011;6522;49.622;6.126;2023-04-16T02:55:15;5.10;;;4.70;;
12908;SDS011;6522;49.622;6.126;2023-04-16T02:58:02;5.18;;;4.72;;
12908;SDS011;6522;49.622;6.126;2023-04-16T03:00:49;5.45;;;4.95;;
12908;SDS011;6522;49.622;6.126;2023-04-16T03:03:36;4.65;;;4.10;;
12908;SDS011;6522;49.622;6.126;2023-04-16T03:06:22;5.10;;;4.60;;
12908;SDS011;6522;49.622;6.126;2023-04-16T03:09:10;5.70;;;5.00;;
12908;SDS011;6522;49.622;6.126;2023-04-16T03:11:56;4.30;;;3.90;;
12908;SDS011;6522;49.622;6.126;2023-04-16T03:14:43;5.10;;;4.70;;
12908;SDS011;6522;49.622;6.126;2023-04-16T03:17:30;6.25;;;4.57;;
12908;SDS011;6522;49.622;6.126;2023-04-16T03:20:16;4.50;;;4.20;;
12908;SDS011;6522;49.622;6.126;2023-04-16T03:23:03;4.80;;;4.43;;
12908;SDS011;6522;49.622;6.126;2023-04-16T03:25:50;4.55;;;3.67;;
12908;SDS011;6522;49.622;6.126;2023-04-16T03:28:37;4.30;;;3.90;;
12908;SDS011;6522;49.622;6.126;2023-04-16T03:31:24;4.90;;;4.50;;
12908;SDS011;6522;49.622;6.126;2023-04-16T03:34:11;4.78;;;4.37;;
12908;SDS011;6522;49.622;6.126;2023-04-16T03:36:57;4.55;;;4.15;;
12908;SDS011;6522;49.622;6.126;2023-04-16T03:39:44;4.65;;;4.25;;
12908;SDS011;6522;49.622;6.126;2023-04-16T03:42:31;5.10;;;3.60;;
12908;SDS011;6522;49.622;6.126;2023-04-16T03:45:17;4.93;;;3.67;;
12908;SDS011;6522;49.622;6.126;2023-04-16T03:48:04;5.03;;;4.62;;
12908;SDS011;6522;49.622;6.126;2023-04-16T03:50:51;5.22;;;4.78;;
12908;SDS011;6522;49.622;6.126;2023-04-16T03:53:38;4.30;;;3.90;;
12908;SDS011;6522;49.622;6.126;2023-04-16T03:56:25;4.40;;;4.00;;
12908;SDS011;6522;49.622;6.126;2023-04-16T03:59:12;4.53;;;4.12;;
12908;SDS011;6522;49.622;6.126;2023-04-16T04:01:59;4.10;;;3.70;;
12908;SDS011;6522;49.622;6.126;2023-04-16T04:04:46;4.37;;;4.07;;
12908;SDS011;6522;49.622;6.126;2023-04-16T04:07:32;4.28;;;3.97;;
12908;SDS011;6522;49.622;6.126;2023-04-16T04:10:19;7.53;;;4.12;;
12908;SDS011;6522;49.622;6.126;2023-04-16T04:13:06;4.22;;;3.72;;
12908;SDS011;6522;49.622;6.126;2023-04-16T04:15:53;4.28;;;3.90;;
12908;SDS011;6522;49.622;6.126;2023-04-16T04:18:39;4.60;;;4.20;;
12908;SDS011;6522;49.622;6.126;2023-04-16T04:21:26;4.68;;;4.28;;
12908;SDS011;6522;49.622;6.126;2023-04-16T04:24:13;4.95;;;4.37;;
12908;SDS011;6522;49.622;6.126;2023-04-16T04:26:59;4.93;;;4.25;;
12908;SDS011;6522;49.622;6.126;2023-04-16T04:29:46;4.80;;;4.35;;
12908;SDS011;6522;49.622;6.126;2023-04-16T04:32:33;6.60;;;4.70;;
12908;SDS011;6522;49.622;6.126;2023-04-16T04:35:20;6.70;;;5.05;;
12908;SDS011;6522;49.622;6.126;2023-04-16T04:38:07;5.10;;;4.60;;
12908;SDS011;6522;49.622;6.126;2023-04-16T04:40:54;5.20;;;4.53;;
12908;SDS011;6522;49.622;6.126;2023-04-16T04:43:40;5.68;;;5.10;;
12908;SDS011;6522;49.622;6.126;2023-04-16T04:46:27;4.72;;;4.32;;
12908;SDS011;6522;49.622;6.126;2023-04-16T04:49:14;5.50;;;5.00;;
12908;SDS011;6522;49.622;6.126;2023-04-16T04:52:01;4.97;;;4.28;;
12908;SDS011;6522;49.622;6.126;2023-04-16T04:54:48;4.93;;;4.22;;
12908;SDS011;6522;49.622;6.126;2023-04-16T04:57:35;6.12;;;5.53;;
12908;SDS011;6522;49.622;6.126;2023-04-16T05:00:22;6.10;;;4.97;;
12908;SDS011;6522;49.622;6.126;2023-04-16T05:03:09;5.50;;;5.00;;
12908;SDS011;6522;49.622;6.126;2023-04-16T05:05:56;6.18;;;5.57;;
12908;SDS011;6522;49.622;6.126;2023-04-16T05:08:42;6.18;;;4.90;;
12908;SDS011;6522;49.622;6.126;2023-04-16T05:11:32;5.32;;;4.60;;
12908;SDS011;6522;49.622;6.126;2023-04-16T05:14:16;6.90;;;6.10;;
12908;SDS011;6522;49.622;6.126;2023-04-16T05:17:03;6.43;;;5.10;;
12908;SDS011;6522;49.622;6.126;2023-04-16T05:19:50;6.50;;;5.70;;
12908;SDS011;6522;49.622;6.126;2023-04-16T05:22:37;6.10;;;5.30;;
12908;SDS011;6522;49.622;6.126;2023-04-16T05:25:24;6.95;;;5.87;;
12908;SDS011;6522;49.622;6.126;2023-04-16T05:28:10;5.32;;;4.70;;
12908;SDS011;6522;49.622;6.126;2023-04-16T05:30:57;6.22;;;5.62;;
12908;SDS011;6522;49.622;6.126;2023-04-16T05:33:43;7.47;;;5.70;;
12908;SDS011;6522;49.622;6.126;2023-04-16T05:36:30;6.72;;;6.12;;
12908;SDS011;6522;49.622;6.126;2023-04-16T05:39:17;5.60;;;5.07;;
12908;SDS011;6522;49.622;6.126;2023-04-16T05:42:03;8.45;;;5.68;;
12908;SDS011;6522;49.622;6.126;2023-04-16T05:44:50;6.55;;;5.95;;
12908;SDS011;6522;49.622;6.126;2023-04-16T05:47:37;5.80;;;5.20;;
12908;SDS011;6522;49.622;6.126;2023-04-16T05:50:24;6.03;;;5.43;;
12908;SDS011;6522;49.622;6.126;2023-04-16T05:53:11;6.60;;;5.62;;
12908;SDS011;6522;49.622;6.126;2023-04-16T05:55:58;6.95;;;5.35;;
12908;SDS011;6522;49.622;6.126;2023-04-16T05:58:45;6.30;;;5.70;;
12908;SDS011;6522;49.622;6.126;2023-04-16T06:01:32;5.25;;;4.75;;
12908;SDS011;6522;49.622;6.126;2023-04-16T06:04:19;8.82;;;6.30;;
12908;SDS011;6522;49.622;6.126;2023-04-16T06:07:05;6.43;;;5.70;;
12908;SDS011;6522;49.622;6.126;2023-04-16T06:09:52;6.80;;;5.72;;
12908;SDS011;6522;49.622;6.126;2023-04-16T06:12:40;6.60;;;5.90;;
12908;SDS011;6522;49.622;6.126;2023-04-16T06:15:27;5.95;;;4.93;;
12908;SDS011;6522;49.622;6.126;2023-04-16T06:18:14;6.87;;;6.00;;
12908;SDS011;6522;49.622;6.126;2023-04-16T06:21:00;6.00;;;5.40;;
12908;SDS011;6522;49.622;6.126;2023-04-16T06:23:47;6.35;;;5.72;;
12908;SDS011;6522;49.622;6.126;2023-04-16T06:26:34;6.43;;;5.37;;
12908;SDS011;6522;49.622;6.126;2023-04-16T06:29:21;9.32;;;7.10;;
12908;SDS011;6522;49.622;6.126;2023-04-16T06:32:07;6.20;;;5.60;;
12908;SDS011;6522;49.622;6.126;2023-04-16T06:34:55;6.60;;;5.90;;
12908;SDS011;6522;49.622;6.126;2023-04-16T06:37:42;7.37;;;6.68;;
12908;SDS011;6522;49.622;6.126;2023-04-16T06:40:28;7.75;;;6.47;;
12908;SDS011;6522;49.622;6.126;2023-04-16T06:43:15;6.53;;;5.93;;
12908;SDS011;6522;49.622;6.126;2023-04-16T06:46:02;6.22;;;5.62;;
12908;SDS011;6522;49.622;6.126;2023-04-16T06:48:48;6.90;;;6.20;;
12908;SDS011;6522;49.622;6.126;2023-04-16T06:51:35;6.95;;;6.30;;
12908;SDS011;6522;49.622;6.126;2023-04-16T06:54:22;8.07;;;6.20;;
12908;SDS011;6522;49.622;6.126;2023-04-16T06:57:09;7.40;;;6.65;;
12908;SDS011;6522;49.622;6.126;2023-04-16T06:59:56;7.40;;;6.80;;
12908;SDS011;6522;49.622;6.126;2023-04-16T07:02:42;6.57;;;5.87;;
12908;SDS011;6522;49.622;6.126;2023-04-16T07:05:29;7.50;;;6.87;;
12908;SDS011;6522;49.622;6.126;2023-04-16T07:08:16;6.60;;;6.10;;
12908;SDS011;6522;49.622;6.126;2023-04-16T07:11:03;9.23;;;7.82;;
12908;SDS011;6522;49.622;6.126;2023-04-16T07:13:50;7.53;;;6.90;;
12908;SDS011;6522;49.622;6.126;2023-04-16T07:16:36;6.93;;;6.22;;
12908;SDS011;6522;49.622;6.126;2023-04-16T07:19:23;8.10;;;7.43;;
12908;SDS011;6522;49.622;6.126;2023-04-16T07:22:10;7.75;;;7.10;;
12908;SDS011;6522;49.622;6.126;2023-04-16T07:24:57;8.30;;;7.43;;
12908;SDS011;6522;49.622;6.126;2023-04-16T07:27:44;8.32;;;7.62;;
12908;SDS011;6522;49.622;6.126;2023-04-16T07:30:31;7.43;;;6.68;;
12908;SDS011;6522;49.622;6.126;2023-04-16T07:33:18;7.40;;;6.80;;
12908;SDS011;6522;49.622;6.126;2023-04-16T07:36:05;8.18;;;7.37;;
12908;SDS011;6522;49.622;6.126;2023-04-16T07:38:52;8.48;;;7.37;;
12908;SDS011;6522;49.622;6.126;2023-04-16T07:41:38;8.77;;;7.25;;
12908;SDS011;6522;49.622;6.126;2023-04-16T07:44:25;8.93;;;8.13;;
12908;SDS011;6522;49.622;6.126;2023-04-16T07:47:11;7.60;;;7.00;;
12908;SDS011;6522;49.622;6.126;2023-04-16T07:49:58;8.20;;;7.60;;
12908;SDS011;6522;49.622;6.126;2023-04-16T07:52:45;8.20;;;7.60;;
12908;SDS011;6522;49.622;6.126;2023-04-16T07:55:32;8.00;;;7.30;;
12908;SDS011;6522;49.622;6.126;2023-04-16T07:58:18;9.25;;;8.45;;
12908;SDS011;6522;49.622;6.126;2023-04-16T08:01:06;10.45;;;8.07;;
12908;SDS011;6522;49.622;6.126;2023-04-16T08:03:52;9.40;;;8.77;;
12908;SDS011;6522;49.622;6.126;2023-04-16T08:06:39;8.90;;;8.10;;
12908;SDS011;6522;49.622;6.126;2023-04-16T08:09:26;8.95;;;8.35;;
12908;SDS011;6522;49.622;6.126;2023-04-16T08:12:12;10.02;;;9.27;;
12908;SDS011;6522;49.622;6.126;2023-04-16T08:14:59;10.45;;;9.65;;
12908;SDS011;6522;49.622;6.126;2023-04-16T08:17:46;9.57;;;8.90;;
12908;SDS011;6522;49.622;6.126;2023-04-16T08:20:33;9.77;;;8.95;;
12908;SDS011;6522;49.622;6.126;2023-04-16T08:23:19;11.10;;;10.32;;
12908;SDS011;6522;49.622;6.126;2023-04-16T08:26:06;9.35;;;8.75;;
12908;SDS011;6522;49.622;6.126;2023-04-16T08:28:53;10.73;;;10.02;;
12908;SDS011;6522;49.622;6.126;2023-04-16T08:31:39;10.85;;;10.00;;
12908;SDS011;6522;49.622;6.126;2023-04-16T08:34:26;7.97;;;7.37;;
12908;SDS011;6522;49.622;6.126;2023-04-16T08:37:13;10.90;;;10.20;;
12908;SDS011;6522;49.622;6.126;2023-04-16T08:39:59;10.98;;;10.27;;
12908;SDS011;6522;49.622;6.126;2023-04-16T08:42:51;10.55;;;9.95;;
12908;SDS011;6522;49.622;6.126;2023-04-16T08:45:33;10.63;;;9.93;;
12908;SDS011;6522;49.622;6.126;2023-04-16T08:48:20;10.43;;;9.73;;
12908;SDS011;6522;49.622;6.126;2023-04-16T08:51:07;10.77;;;10.07;;
12908;SDS011;6522;49.622;6.126;2023-04-16T08:54:03;9.70;;;9.10;;
12908;SDS011;6522;49.622;6.126;2023-04-16T08:56:40;11.68;;;10.88;;
12908;SDS011;6522;49.622;6.126;2023-04-16T08:59:26;11.10;;;10.40;;
12908;SDS011;6522;49.622;6.126;2023-04-16T09:02:13;11.05;;;10.45;;
12908;SDS011;6522;49.622;6.126;2023-04-16T09:05:00;10.00;;;9.30;;
12908;SDS011;6522;49.622;6.126;2023-04-16T09:07:47;13.93;;;13.13;;
12908;SDS011;6522;49.622;6.126;2023-04-16T09:10:33;14.55;;;13.80;;
12908;SDS011;6522;49.622;6.126;2023-04-16T09:13:20;15.38;;;14.57;;
12908;SDS011;6522;49.622;6.126;2023-04-16T09:16:07;16.70;;;15.90;;
12908;SDS011;6522;49.622;6.126;2023-04-16T09:18:53;14.35;;;13.55;;
12908;SDS011;6522;49.622;6.126;2023-04-16T09:21:41;14.80;;;14.00;;
12908;SDS011;6522;49.622;6.126;2023-04-16T09:24:28;18.93;;;17.90;;
12908;SDS011;6522;49.622;6.126;2023-04-16T09:27:14;16.37;;;15.38;;
12908;SDS011;6522;49.622;6.126;2023-04-16T09:30:24;14.40;;;13.50;;
12908;SDS011;6522;49.622;6.126;2023-04-16T09:32:48;17.60;;;16.70;;
12908;SDS011;6522;49.622;6.126;2023-04-16T09:35:43;14.68;;;13.88;;
12908;SDS011;6522;49.622;6.126;2023-04-16T09:38:22;15.40;;;14.50;;
12908;SDS011;6522;49.622;6.126;2023-04-16T09:41:08;17.55;;;16.55;;
12908;SDS011;6522;49.622;6.126;2023-04-16T09:44:02;17.83;;;16.73;;
12908;SDS011;6522;49.622;6.126;2023-04-16T09:46:48;18.47;;;17.47;;
12908;SDS011;6522;49.622;6.126;2023-04-16T09:49:39;14.38;;;13.48;;
12908;SDS011;6522;49.622;6.126;2023-04-16T09:52:21;18.60;;;17.60;;
12908;SDS011;6522;49.622;6.126;2023-04-16T09:55:08;16.08;;;15.18;;
12908;SDS011;6522;49.622;6.126;2023-04-16T09:57:59;16.55;;;15.55;;
12908;SDS011;6522;49.622;6.126;2023-04-16T10:00:42;19.03;;;17.93;;
12908;SDS011;6522;49.622;6.126;2023-04-16T10:03:29;16.25;;;15.45;;
12908;SDS011;6522;49.622;6.126;2023-04-16T10:06:19;18.40;;;17.40;;
12908;SDS011;6522;49.622;6.126;2023-04-16T10:09:04;18.30;;;17.40;;
12908;SDS011;6522;49.622;6.126;2023-04-16T10:11:49;18.90;;;18.00;;
12908;SDS011;6522;49.622;6.126;2023-04-16T10:14:36;17.47;;;16.67;;
12908;SDS011;6522;49.622;6.126;2023-04-16T10:17:22;18.53;;;17.63;;
12908;SDS011;6522;49.622;6.126;2023-04-16T10:20:09;19.03;;;18.13;;
12908;SDS011;6522;49.622;6.126;2023-04-16T10:22:56;20.00;;;18.90;;
12908;SDS011;6522;49.622;6.126;2023-04-16T10:25:43;18.50;;;17.60;;
12908;SDS011;6522;49.622;6.126;2023-04-16T10:28:30;19.80;;;18.90;;
12908;SDS011;6522;49.622;6.126;2023-04-16T10:31:17;16.33;;;15.43;;
12908;SDS011;6522;49.622;6.126;2023-04-16T10:34:04;16.10;;;15.30;;
12908;SDS011;6522;49.622;6.126;2023-04-16T10:36:51;19.00;;;17.93;;
12908;SDS011;6522;49.622;6.126;2023-04-16T10:39:37;16.70;;;15.90;;
12908;SDS011;6522;49.622;6.126;2023-04-16T10:42:24;19.17;;;18.20;;
12908;SDS011;6522;49.622;6.126;2023-04-16T10:45:10;16.30;;;15.40;;
12908;SDS011;6522;49.622;6.126;2023-04-16T10:47:57;18.83;;;17.93;;
12908;SDS011;6522;49.622;6.126;2023-04-16T10:50:54;16.90;;;15.90;;
12908;SDS011;6522;49.622;6.126;2023-04-16T10:53:41;19.30;;;18.30;;
12908;SDS011;6522;49.622;6.126;2023-04-16T10:56:27;19.90;;;18.90;;
12908;SDS011;6522;49.622;6.126;2023-04-16T10:59:16;17.20;;;16.27;;
12908;SDS011;6522;49.622;6.126;2023-04-16T11:02:05;17.00;;;16.00;;
12908;SDS011;6522;49.622;6.126;2023-04-16T11:04:47;19.50;;;18.60;;
12908;SDS011;6522;49.622;6.126;2023-04-16T11:07:34;17.02;;;16.12;;
12908;SDS011;6522;49.622;6.126;2023-04-16T11:10:21;17.10;;;16.20;;
12908;SDS011;6522;49.622;6.126;2023-04-16T11:13:07;17.00;;;16.10;;
12908;SDS011;6522;49.622;6.126;2023-04-16T11:15:56;19.77;;;18.77;;
12908;SDS011;6522;49.622;6.126;2023-04-16T11:18:41;17.10;;;16.20;;
12908;SDS011;6522;49.622;6.126;2023-04-16T11:21:28;16.80;;;15.80;;
12908;SDS011;6522;49.622;6.126;2023-04-16T11:24:14;20.83;;;19.63;;
12908;SDS011;6522;49.622;6.126;2023-04-16T11:27:01;17.00;;;15.90;;
12908;SDS011;6522;49.622;6.126;2023-04-16T11:29:57;15.10;;;14.20;;
12908;SDS011;6522;49.622;6.126;2023-04-16T11:32:35;15.90;;;15.05;;
12908;SDS011;6522;49.622;6.126;2023-04-16T11:35:21;20.10;;;19.10;;
12908;SDS011;6522;49.622;6.126;2023-04-16T11:38:08;16.98;;;16.08;;
12908;SDS011;6522;49.622;6.126;2023-04-16T11:40:55;19.08;;;18.17;;
12908;SDS011;6522;49.622;6.126;2023-04-16T11:43:42;19.20;;;18.30;;
12908;SDS011;6522;49.622;6.126;2023-04-16T11:46:38;18.60;;;17.70;;
12908;SDS011;6522;49.622;6.126;2023-04-16T11:49:28;17.92;;;17.02;;
12908;SDS011;6522;49.622;6.126;2023-04-16T11:52:30;18.40;;;17.50;;
12908;SDS011;6522;49.622;6.126;2023-04-16T11:55:17;18.25;;;17.35;;
12908;SDS011;6522;49.622;6.126;2023-04-16T11:58:13;18.12;;;17.15;;
12908;SDS011;6522;49.622;6.126;2023-04-16T12:00:59;18.27;;;17.37;;
12908;SDS011;6522;49.622;6.126;2023-04-16T12:03:46;18.80;;;17.90;;
12908;SDS011;6522;49.622;6.126;2023-04-16T12:06:33;16.75;;;15.80;;
12908;SDS011;6522;49.622;6.126;2023-04-16T12:09:26;16.45;;;15.45;;
12908;SDS011;6522;49.622;6.126;2023-04-16T12:12:26;18.90;;;18.00;;
12908;SDS011;6522;49.622;6.126;2023-04-16T12:15:13;16.90;;;16.00;;
12908;SDS011;6522;49.622;6.126;2023-04-16T12:18:05;16.40;;;15.50;;
12908;SDS011;6522;49.622;6.126;2023-04-16T12:20:52;17.02;;;16.02;;
12908;SDS011;6522;49.622;6.126;2023-04-16T12:23:39;19.23;;;18.33;;
12908;SDS011;6522;49.622;6.126;2023-04-16T12:26:26;16.37;;;15.47;;
12908;SDS011;6522;49.622;6.126;2023-04-16T12:29:13;15.90;;;15.00;;
12908;SDS011;6522;49.622;6.126;2023-04-16T12:31:59;18.90;;;18.00;;
12908;SDS011;6522;49.622;6.126;2023-04-16T12:34:49;14.68;;;13.80;;
12908;SDS011;6522;49.622;6.126;2023-04-16T12:37:37;15.43;;;14.52;;
12908;SDS011;6522;49.622;6.126;2023-04-16T12:40:23;19.17;;;18.27;;
12908;SDS011;6522;49.622;6.126;2023-04-16T12:43:10;19.40;;;18.48;;
12908;SDS011;6522;49.622;6.126;2023-04-16T12:45:57;18.17;;;17.33;;
12908;SDS011;6522;49.622;6.126;2023-04-16T12:48:44;17.95;;;17.05;;
12908;SDS011;6522;49.622;6.126;2023-04-16T12:51:30;18.55;;;17.65;;
12908;SDS011;6522;49.622;6.126;2023-04-16T12:54:17;18.25;;;17.33;;
12908;SDS011;6522;49.622;6.126;2023-04-16T12:57:04;17.95;;;17.00;;
12908;SDS011;6522;49.622;6.126;2023-04-16T12:59:50;19.20;;;18.30;;
12908;SDS011;6522;49.622;6.126;2023-04-16T13:02:37;18.50;;;17.60;;
12908;SDS011;6522;49.622;6.126;2023-04-16T13:05:24;15.93;;;15.13;;
12908;SDS011;6522;49.622;6.126;2023-04-16T13:08:11;19.20;;;18.30;;
12908;SDS011;6522;49.622;6.126;2023-04-16T13:10:57;16.37;;;15.48;;
12908;SDS011;6522;49.622;6.126;2023-04-16T13:13:44;16.20;;;15.40;;
12908;SDS011;6522;49.622;6.126;2023-04-16T13:16:31;19.00;;;18.00;;
12908;SDS011;6522;49.622;6.126;2023-04-16T13:19:17;15.07;;;14.27;;
12908;SDS011;6522;49.622;6.126;2023-04-16T13:22:04;18.37;;;17.47;;
12908;SDS011;6522;49.622;6.126;2023-04-16T13:24:51;15.20;;;14.40;;
12908;SDS011;6522;49.622;6.126;2023-04-16T13:27:37;16.05;;;15.25;;
12908;SDS011;6522;49.622;6.126;2023-04-16T13:30:24;16.55;;;15.65;;
12908;SDS011;6522;49.622;6.126;2023-04-16T13:33:11;18.27;;;17.47;;
12908;SDS011;6522;49.622;6.126;2023-04-16T13:35:58;16.25;;;15.35;;
12908;SDS011;6522;49.622;6.126;2023-04-16T13:38:45;16.50;;;15.70;;
12908;SDS011;6522;49.622;6.126;2023-04-16T13:41:31;18.43;;;17.53;;
12908;SDS011;6522;49.622;6.126;2023-04-16T13:44:18;15.82;;;14.93;;
12908;SDS011;6522;49.622;6.126;2023-04-16T13:47:05;15.95;;;15.15;;
12908;SDS011;6522;49.622;6.126;2023-04-16T13:49:52;18.63;;;17.73;;
12908;SDS011;6522;49.622;6.126;2023-04-16T13:52:38;15.98;;;15.13;;
12908;SDS011;6522;49.622;6.126;2023-04-16T13:55:25;15.70;;;14.87;;
12908;SDS011;6522;49.622;6.126;2023-04-16T13:58:12;16.05;;;15.25;;
12908;SDS011;6522;49.622;6.126;2023-04-16T14:00:59;18.10;;;17.20;;
12908;SDS011;6522;49.622;6.126;2023-04-16T14:03:46;15.52;;;14.63;;
12908;SDS011;6522;49.622;6.126;2023-04-16T14:06:33;16.67;;;15.77;;
12908;SDS011;6522;49.622;6.126;2023-04-16T14:09:20;16.30;;;15.50;;
12908;SDS011;6522;49.622;6.126;2023-04-16T14:12:07;18.10;;;17.30;;
12908;SDS011;6522;49.622;6.126;2023-04-16T14:14:53;15.60;;;14.70;;
12908;SDS011;6522;49.622;6.126;2023-04-16T14:17:41;16.12;;;15.30;;
12908;SDS011;6522;49.622;6.126;2023-04-16T14:20:27;18.00;;;17.10;;
12908;SDS011;6522;49.622;6.126;2023-04-16T14:23:14;14.85;;;14.15;;
12908;SDS011;6522;49.622;6.126;2023-04-16T14:26:01;16.17;;;15.38;;
12908;SDS011;6522;49.622;6.126;2023-04-16T14:28:47;18.33;;;17.33;;
12908;SDS011;6522;49.622;6.126;2023-04-16T14:31:34;15.27;;;14.38;;
12908;SDS011;6522;49.622;6.126;2023-04-16T14:34:21;15.90;;;14.90;;
12908;SDS011;6522;49.622;6.126;2023-04-16T14:37:07;19.83;;;18.63;;
12908;SDS011;6522;49.622;6.126;2023-04-16T14:39:54;14.80;;;14.00;;
12908;SDS011;6522;49.622;6.126;2023-04-16T14:42:41;14.45;;;13.57;;
12908;SDS011;6522;49.622;6.126;2023-04-16T14:45:27;16.17;;;15.27;;
12908;SDS011;6522;49.622;6.126;2023-04-16T14:48:14;16.70;;;15.80;;
12908;SDS011;6522;49.622;6.126;2023-04-16T14:51:01;18.55;;;17.60;;
12908;SDS011;6522;49.622;6.126;2023-04-16T14:53:48;18.20;;;17.30;;
12908;SDS011;6522;49.622;6.126;2023-04-16T14:56:35;17.10;;;16.10;;
12908;SDS011;6522;49.622;6.126;2023-04-16T14:59:22;18.20;;;17.30;;
12908;SDS011;6522;49.622;6.126;2023-04-16T15:02:08;18.95;;;18.05;;
12908;SDS011;6522;49.622;6.126;2023-04-16T15:04:55;19.23;;;18.12;;
12908;SDS011;6522;49.622;6.126;2023-04-16T15:07:42;19.42;;;18.42;;
12908;SDS011;6522;49.622;6.126;2023-04-16T15:10:29;18.60;;;17.60;;
12908;SDS011;6522;49.622;6.126;2023-04-16T15:13:16;17.30;;;16.30;;
12908;SDS011;6522;49.622;6.126;2023-04-16T15:16:02;16.98;;;15.98;;
12908;SDS011;6522;49.622;6.126;2023-04-16T15:18:52;18.57;;;17.67;;
12908;SDS011;6522;49.622;6.126;2023-04-16T15:21:39;15.85;;;14.85;;
12908;SDS011;6522;49.622;6.126;2023-04-16T15:24:26;17.65;;;16.55;;
12908;SDS011;6522;49.622;6.126;2023-04-16T15:27:13;20.23;;;18.80;;
12908;SDS011;6522;49.622;6.126;2023-04-16T15:29:59;17.20;;;16.10;;
12908;SDS011;6522;49.622;6.126;2023-04-16T15:32:46;18.33;;;17.13;;
12908;SDS011;6522;49.622;6.126;2023-04-16T15:35:36;18.62;;;17.42;;
12908;SDS011;6522;49.622;6.126;2023-04-16T15:38:19;18.20;;;17.00;;
12908;SDS011;6522;49.622;6.126;2023-04-16T15:41:07;21.33;;;19.93;;
12908;SDS011;6522;49.622;6.126;2023-04-16T15:43:53;17.70;;;16.60;;
12908;SDS011;6522;49.622;6.126;2023-04-16T15:46:39;18.98;;;17.70;;
12908;SDS011;6522;49.622;6.126;2023-04-16T15:49:26;21.00;;;19.80;;
12908;SDS011;6522;49.622;6.126;2023-04-16T15:52:14;21.77;;;20.48;;
12908;SDS011;6522;49.622;6.126;2023-04-16T15:55:00;18.73;;;17.50;;
12908;SDS011;6522;49.622;6.126;2023-04-16T15:57:47;23.80;;;22.13;;
12908;SDS011;6522;49.622;6.126;2023-04-16T16:00:33;19.80;;;18.30;;
12908;SDS011;6522;49.622;6.126;2023-04-16T16:03:20;20.10;;;18.80;;
12908;SDS011;6522;49.622;6.126;2023-04-16T16:06:07;19.52;;;18.23;;
12908;SDS011;6522;49.622;6.126;2023-04-16T16:08:53;23.30;;;21.70;;
12908;SDS011;6522;49.622;6.126;2023-04-16T16:11:40;22.80;;;21.30;;
12908;SDS011;6522;49.622;6.126;2023-04-16T16:14:27;24.90;;;23.12;;
12908;SDS011;6522;49.622;6.126;2023-04-16T16:17:13;23.75;;;22.17;;
12908;SDS011;6522;49.622;6.126;2023-04-16T16:20:00;24.95;;;23.30;;
12908;SDS011;6522;49.622;6.126;2023-04-16T16:22:47;23.90;;;22.30;;
12908;SDS011;6522;49.622;6.126;2023-04-16T16:25:33;22.67;;;21.08;;
12908;SDS011;6522;49.622;6.126;2023-04-16T16:28:20;17.98;;;16.67;;
12908;SDS011;6522;49.622;6.126;2023-04-16T16:31:06;24.15;;;22.45;;
12908;SDS011;6522;49.622;6.126;2023-04-16T16:33:54;20.30;;;18.80;;
12908;SDS011;6522;49.622;6.126;2023-04-16T16:36:40;23.45;;;21.65;;
12908;SDS011;6522;49.622;6.126;2023-04-16T16:39:27;19.50;;;17.90;;
12908;SDS011;6522;49.622;6.126;2023-04-16T16:42:14;24.20;;;22.60;;
12908;SDS011;6522;49.622;6.126;2023-04-16T16:45:01;20.90;;;19.30;;